Data for 08/30/2005

Time Sea-Level Adjusted Pressure Absolute Pressure Temperature Relative Humidity Dew Point   
(mb) (inHg) (mb) (inHg) (C) (F) (%) (C) (F)
00:05 1012 29.88 841 24.83 17.2 62.9 49 6.5 43.6
00:10 1012 29.88 841 24.83 17.2 62.9 48 6.1 43
00:15 1011 29.85 841 24.83 17.3 63.1 51 7 44.7
00:20 1012 29.88 841 24.83 16.9 62.4 54 7.5 45.5
00:25 1012 29.88 841 24.83 16.7 62 52 6.8 44.2
00:30 1012 29.88 841 24.83 16.4 61.5 51 6.4 43.5
00:35 1012 29.88 841 24.83 16.5 61.7 50 6.1 42.9
00:40 1012 29.88 841 24.83 16.5 61.7 50 6.1 43
00:45 1012 29.88 841 24.83 16.4 61.5 50 6.1 42.9
00:50 1012 29.88 841 24.83 16.4 61.5 51 6.2 43.2
00:55 1012 29.88 841 24.83 16.2 61.2 50 5.9 42.5
01:00 1012 29.88 841 24.83 16 60.9 51 6.1 43
01:05 1012 29.88 841 24.83 15.7 60.3 52 6 42.8
01:10 1012 29.88 842 24.86 15.6 60.1 52 5.8 42.5
01:15 1013 29.91 842 24.86 15.3 59.6 54 6.1 43
01:20 1013 29.91 842 24.86 15.2 59.3 53 5.8 42.5
01:25 1013 29.91 842 24.86 15.2 59.3 52 5.6 42.1
01:30 1013 29.91 842 24.86 15.3 59.5 53 5.7 42.3
01:35 1013 29.91 842 24.86 15.3 59.5 52 5.6 42.1
01:40 1013 29.91 842 24.86 15.1 59.3 52 5.6 42
01:45 1013 29.91 843 24.89 15 59 50 4.9 40.8
01:50 1013 29.91 843 24.89 15.3 59.5 48 4.3 39.8
01:55 1013 29.91 843 24.89 15.4 59.7 47 4.1 39.4
02:00 1014 29.94 843 24.89 15.4 59.7 47 4.2 39.5
02:05 1014 29.94 843 24.89 15.5 59.9 46 4.2 39.5
02:10 1014 29.94 843 24.89 15.4 59.8 47 4.2 39.5
02:15 1014 29.94 843 24.89 15.4 59.7 46 3.8 38.9
02:20 1014 29.94 843 24.89 15.4 59.7 46 3.8 38.9
02:25 1014 29.94 843 24.89 15.1 59.1 48 4.2 39.5
02:30 1014 29.94 843 24.89 14.8 58.7 48 3.9 39.1
02:35 1014 29.94 843 24.89 14.7 58.5 48 3.9 39
02:40 1014 29.94 843 24.89 14.7 58.4 48 3.8 38.8
02:45 1014 29.94 843 24.89 14.6 58.3 48 3.8 38.9
02:50 1014 29.94 843 24.89 14.4 58 49 4 39.2
02:55 1014 29.94 843 24.89 14.3 57.8 48 3.5 38.3
03:00 1014 29.94 843 24.89 14.4 58 48 3.7 38.7
03:05 1014 29.94 844 24.92 14.5 58.1 49 3.9 39
03:10 1015 29.97 844 24.92 14.5 58 49 4 39.2
03:15 1014 29.94 843 24.89 14.5 58.1 49 4 39.2
03:20 1014 29.94 844 24.92 14.4 58 52 4.6 40.4
03:25 1015 29.97 844 24.92 14.2 57.6 51 4.4 39.9
03:30 1015 29.97 844 24.92 14.2 57.5 51 4.4 39.8
03:35 1014 29.94 844 24.92 14.3 57.8 49 4 39.1
03:40 1015 29.97 844 24.92 14.3 57.8 49 3.7 38.7
03:45 1015 29.97 844 24.92 14.2 57.6 49 3.8 38.8
03:50 1014 29.94 843 24.89 14.4 57.9 49 3.8 38.8
03:55 1014 29.94 844 24.92 14.5 58 52 4.8 40.6
04:00 1015 29.97 844 24.92 14.2 57.5 53 4.9 40.8
04:05 1014 29.94 844 24.92 14 57.1 53 4.5 40.1
04:10 1014 29.94 844 24.92 13.8 56.9 51 3.9 39
04:15 1015 29.97 844 24.92 13.8 56.8 52 4 39.3
04:20 1015 29.97 844 24.92 13.6 56.5 53 4.1 39.4
04:25 1015 29.97 844 24.92 13.4 56.1 56 4.8 40.7
04:30 1015 29.97 844 24.92 13.1 55.6 55 4.3 39.7
04:35 1015 29.97 844 24.92 13.1 55.6 53 3.8 38.9
04:40 1015 29.97 844 24.92 13.1 55.6 53 3.8 38.8
04:45 1015 29.97 844 24.92 13 55.3 52 3.3 37.9
04:50 1015 29.97 844 24.92 12.9 55.2 52 3.3 37.9
04:55 1015 29.97 844 24.92 12.7 54.9 52 3.2 37.7
05:00 1015 29.97 844 24.92 12.6 54.6 52 3.1 37.5
05:05 1015 29.97 844 24.92 12.5 54.4 50 2.4 36.4
05:10 1015 29.97 844 24.92 12.6 54.7 49 2.2 36
05:15 1015 29.97 844 24.92 12.6 54.6 50 2.5 36.5
05:20 1015 29.97 844 24.92 12.3 54.2 52 2.7 36.8
05:25 1015 29.97 844 24.92 12.2 54 50 2.1 35.7
05:30 1015 29.97 844 24.92 12.1 53.8 50 2.1 35.8
05:35 1015 29.97 844 24.92 12.1 53.8 51 2.4 36.3
05:40 1015 29.97 844 24.92 11.7 53.1 56 3.2 37.7
05:45 1015 29.97 844 24.92 11.4 52.4 55 2.6 36.6
05:50 1015 29.97 844 24.92 11.5 52.6 52 2 35.7
05:55 1015 29.97 844 24.92 11.6 52.8 51 1.9 35.5
06:00 1015 29.97 844 24.92 11.5 52.7 51 1.8 35.2
06:05 1015 29.97 844 24.92 11.4 52.5 51 1.7 35
06:10 1015 29.97 844 24.92 11.4 52.5 50 1.4 34.5
06:15 1015 29.97 845 24.95 11.3 52.3 50 1.1 34
06:20 1015 29.97 845 24.95 11.3 52.3 50 1.3 34.3
06:25 1016 30 845 24.95 11.3 52.3 50 1.2 34.2
06:30 1016 30 845 24.95 11.2 52.1 50 1.3 34.3
06:35 1016 30 845 24.95 11.1 52.1 51 1.3 34.4
06:40 1016 30 846 24.98 11.2 52.1 51 1.5 34.7
06:45 1016 30 846 24.98 11.1 52 52 1.6 34.9
06:50 1017 30.03 846 24.98 11.1 51.9 53 2 35.5
06:55 1017 30.03 846 24.98 11 51.8 53 1.8 35.3
07:00 1017 30.03 846 24.98 11 51.8 53 1.9 35.4
07:05 1017 30.03 846 24.98 11 51.8 54 2 35.7
07:10 1017 30.03 846 24.98 10.9 51.7 55 2.3 36.1
07:15 1017 30.03 846 24.98 10.9 51.6 57 2.6 36.8
07:20 1017 30.03 847 25.01 10.6 51 59 3 37.3
07:25 1017 30.03 847 25.01 10.4 50.6 63 3.6 38.5
07:30 1018 30.06 847 25.01 10 50 69 4.6 40.3
07:35 1018 30.06 847 25.01 9.5 49 74 5.1 41.1
07:40 1018 30.06 847 25.01 8.9 47.9 78 5.3 41.6
07:45 1018 30.06 848 25.04 8.3 46.9 83 5.5 42
07:50 1019 30.09 848 25.04 7.7 45.9 88 5.8 42.5
07:55 1019 30.09 848 25.04 7.3 45.1 91 5.9 42.7
08:00 1019 30.09 848 25.04 6.9 44.5 92 5.8 42.4
08:05 1019 30.09 848 25.04 6.8 44.2 93 5.7 42.3
08:10 1019 30.09 848 25.04 6.8 44.2 93 5.7 42.2
08:15 1019 30.09 848 25.04 6.6 43.9 94 5.7 42.2
08:20 1019 30.09 848 25.04 6.6 43.9 93 5.6 42.1
08:25 1019 30.09 848 25.04 6.7 44 93 5.6 42.1
08:30 1019 30.09 848 25.04 6.7 44 93 5.7 42.2
08:35 1019 30.09 848 25.04 6.7 44 93 5.6 42
08:40 1019 30.09 848 25.04 6.6 44 92 5.5 41.9
08:45 1019 30.09 848 25.04 6.6 43.8 93 5.5 41.9
08:50 1019 30.09 848 25.04 6.5 43.6 94 5.6 42
08:55 1019 30.09 848 25.04 6.6 43.8 95 5.8 42.4
09:00 1019 30.09 848 25.04 6.6 43.9 93 5.6 42.1
09:05 1019 30.09 848 25.04 6.6 43.9 94 5.6 42.2
09:10 1019 30.09 848 25.04 6.6 43.9 95 5.8 42.4
09:15 1019 30.09 848 25.04 6.9 44.5 92 5.7 42.3
09:20 1019 30.09 848 25.04 7.1 44.8 92 5.9 42.6
09:25 1019 30.09 848 25.04 7.1 44.9 89 5.5 41.9
09:30 1019 30.09 848 25.04 7.1 44.8 90 5.5 42
09:35 1019 30.09 848 25.04 7 44.5 90 5.5 41.8
09:40 1019 30.09 848 25.04 6.9 44.3 91 5.6 42
09:45 1019 30.09 849 25.07 6.7 44.1 92 5.4 41.8
09:50 1019 30.09 849 25.07 6.6 43.8 93 5.5 42
09:55 1020 30.12 849 25.07 6.6 43.9 92 5.4 41.7
10:00 1020 30.12 849 25.07 6.6 43.8 93 5.5 42
10:05 1020 30.12 849 25.07 6.5 43.7 93 5.4 41.7
10:10 1020 30.12 849 25.07 6.4 43.5 94 5.4 41.7
10:15 1020 30.12 850 25.1 6.3 43.3 92 5.1 41.2
10:20 1020 30.12 850 25.1 6.2 43.1 92 4.9 40.9
10:25 1020 30.12 849 25.07 6.1 43.1 91 4.8 40.7
10:30 1020 30.12 850 25.1 6.2 43.2 91 4.9 40.8
10:35 1020 30.12 850 25.1 6.2 43.1 93 5.1 41.3
10:40 1020 30.12 850 25.1 6.3 43.3 93 5.2 41.3
10:45 1021 30.15 850 25.1 6.1 43 94 5.1 41.2
10:50 1021 30.15 850 25.1 5.8 42.5 94 4.9 40.9
10:55 1021 30.15 850 25.1 5.7 42.3 93 4.7 40.5
11:00 1021 30.15 850 25.1 5.7 42.2 94 4.8 40.7
11:05 1021 30.15 850 25.1 5.7 42.2 94 4.8 40.6
11:10 1021 30.15 850 25.1 5.6 42 95 4.8 40.6
11:15 1021 30.15 850 25.1 5.4 41.7 94 4.6 40.2
11:20 1021 30.15 850 25.1 5.3 41.6 93 4.3 39.8
11:25 1021 30.15 850 25.1 5.2 41.3 94 4.2 39.6
11:30 1021 30.15 850 25.1 5 41 92 3.7 38.7
11:35 1021 30.15 851 25.13 4.9 40.7 91 3.5 38.3
11:40 1021 30.15 851 25.13 4.7 40.4 91 3.4 38.1
11:45 1021 30.15 851 25.13 4.6 40.3 90 3.2 37.8
11:50 1021 30.15 851 25.13 4.6 40.3 92 3.4 38.1
11:55 1022 30.18 851 25.13 4.7 40.5 91 3.4 38.1
12:00 1022 30.18 851 25.13 4.7 40.5 91 3.4 38.1
12:05 1021 30.15 851 25.13 4.9 40.8 90 3.3 38
12:10 1022 30.18 851 25.13 5.2 41.3 93 4.1 39.4
12:15 1022 30.18 851 25.13 5.4 41.8 88 3.6 38.6
12:20 1022 30.18 851 25.13 5.4 41.7 88 3.5 38.4
12:25 1022 30.18 851 25.13 5.5 41.8 88 3.6 38.6
12:30 1022 30.18 851 25.13 5.5 41.9 88 3.6 38.4
12:35 1021 30.15 851 25.13 5.8 42.4 84 3.3 37.9
12:40 1021 30.15 851 25.13 6.1 43 85 3.9 39
12:45 1021 30.15 851 25.13 6.4 43.6 82 3.6 38.6
12:50 1021 30.15 851 25.13 6.9 44.4 79 3.6 38.4
12:55 1021 30.15 850 25.1 7.4 45.4 79 4 39.3
13:00 1021 30.15 850 25.1 7.5 45.6 78 4 39.2
13:05 1021 30.15 850 25.1 7.6 45.6 80 4.3 39.8
13:10 1021 30.15 850 25.1 7.8 46 77 4.1 39.3
13:15 1021 30.15 850 25.1 8.2 46.7 78 4.6 40.2
13:20 1021 30.15 850 25.1 8.6 47.5 76 4.7 40.4
13:25 1021 30.15 851 25.13 8.4 47.2 73 4 39.2
13:30 1021 30.15 851 25.13 8.8 47.8 71 3.9 39
13:35 1021 30.15 851 25.13 9.3 48.8 69 3.9 39.1
13:40 1021 30.15 851 25.13 9.4 48.8 68 3.7 38.7
13:45 1021 30.15 851 25.13 9.3 48.8 66 3.3 38
13:50 1021 30.15 851 25.13 9.7 49.4 61 2.6 36.7
13:55 1021 30.15 851 25.13 9.8 49.6 61 2.8 37
14:00 1021 30.15 851 25.13 10.1 50.2 56 1.8 35.3
14:05 1021 30.15 851 25.13 10.4 50.7 57 2.4 36.3
14:10 1021 30.15 851 25.13 10.5 50.8 59 2.8 37.1
14:15 1021 30.15 851 25.13 10.2 50.4 59 2.6 36.7
14:20 1021 30.15 850 25.1 10.6 51 58 2.7 36.8
14:25 1021 30.15 850 25.1 11.4 52.5 55 2.7 36.8
14:30 1021 30.15 850 25.1 12 53.6 53 2.7 36.9
14:35 1021 30.15 850 25.1 12.5 54.5 51 2.8 37
14:40 1021 30.15 850 25.1 12.1 53.7 56 3.5 38.3
14:45 1021 30.15 850 25.1 12.9 55.2 52 3.3 38
14:50 1021 30.15 850 25.1 12.8 55.1 53 3.6 38.5
14:55 1021 30.15 850 25.1 13 55.3 53 3.7 38.6
15:00 1021 30.15 850 25.1 13.2 55.8 52 3.5 38.4
15:05 1021 30.15 850 25.1 13.2 55.8 52 3.6 38.5
15:10 1021 30.15 850 25.1 13.9 57 49 3.3 37.9
15:15 1021 30.15 850 25.1 13.4 56.1 53 4 39.3
15:20 1021 30.15 850 25.1 13 55.4 55 4.2 39.6
15:25 1021 30.15 850 25.1 12.7 54.8 55 3.9 39
15:30 1021 30.15 850 25.1 12.5 54.5 57 4.2 39.6
15:35 1021 30.15 850 25.1 12.4 54.3 57 4.1 39.3
15:40 1022 30.18 851 25.13 10.6 51.1 70 5.5 41.9
15:45 1021 30.15 851 25.13 9.1 48.4 78 5.5 41.8
15:50 1021 30.15 851 25.13 8.1 46.6 83 5.4 41.8
15:55 1021 30.15 851 25.13 8 46.4 82 5.2 41.4
16:00 1021 30.15 850 25.1 8.1 46.6 80 4.9 40.9
16:05 1021 30.15 850 25.1 8.3 46.9 78 4.7 40.4
16:10 1021 30.15 850 25.1 8.6 47.4 74 4.1 39.4
16:15 1021 30.15 850 25.1 8.9 48 74 4.6 40.3
16:20 1021 30.15 850 25.1 8.8 47.8 72 4.1 39.4
16:25 1021 30.15 850 25.1 8.8 47.8 78 5.1 41.2
16:30 1021 30.15 850 25.1 8.8 47.8 76 4.8 40.7
16:35 1021 30.15 850 25.1 9.1 48.3 73 4.5 40.1
16:40 1021 30.15 850 25.1 9.4 49 72 4.8 40.6
16:45 1021 30.15 850 25.1 9.8 49.6 68 4.1 39.3
16:50 1021 30.15 851 25.13 10.3 50.5 63 3.6 38.4
16:55 1021 30.15 851 25.13 10.5 50.9 62 3.6 38.4
17:00 1021 30.15 851 25.13 10.9 51.7 57 2.9 37.2
17:05 1021 30.15 851 25.13 11.6 52.8 54 2.6 36.7
17:10 1022 30.18 851 25.13 11.6 52.9 55 2.9 37.2
17:15 1021 30.15 851 25.13 11.4 52.6 52 2.1 35.7
17:20 1021 30.15 851 25.13 11.9 53.4 51 2.1 35.9
17:25 1021 30.15 851 25.13 12.4 54.4 50 2.5 36.5
17:30 1021 30.15 851 25.13 12.6 54.7 46 1.4 34.6
17:35 1021 30.15 851 25.13 13.1 55.5 44 1.3 34.3
17:40 1022 30.18 851 25.13 13.4 56 46 2.1 35.8
17:45 1022 30.18 851 25.13 13.7 56.7 46 2.3 36.1
17:50 1022 30.18 851 25.13 13.7 56.7 47 2.6 36.7
17:55 1022 30.18 851 25.13 13.2 55.8 48 2.6 36.7
18:00 1022 30.18 851 25.13 13 55.3 50 2.7 36.9
18:05 1022 30.18 851 25.13 12.9 55.3 49 2.6 36.7
18:10 1022 30.18 851 25.13 13 55.5 53 3.8 38.8
18:15 1022 30.18 851 25.13 11.7 53 58 3.8 38.8
18:20 1022 30.18 851 25.13 11.8 53.3 55 3 37.4
18:25 1022 30.18 851 25.13 12.7 54.8 52 3 37.5
18:30 1022 30.18 851 25.13 12.9 55.1 51 3 37.4
18:35 1022 30.18 851 25.13 12.9 55.2 50 2.8 37
18:40 1022 30.18 851 25.13 12.8 55.1 51 3 37.4
18:45 1022 30.18 851 25.13 12.9 55.2 50 2.7 36.9
18:50 1021 30.15 851 25.13 13 55.4 50 3 37.3
18:55 1021 30.15 851 25.13 13 55.3 53 3.7 38.7
19:00 1021 30.15 851 25.13 12.1 53.7 57 4 39.1
19:05 1021 30.15 851 25.13 11.9 53.5 56 3.5 38.3
19:10 1021 30.15 851 25.13 12.1 53.7 57 3.9 39
19:15 1021 30.15 851 25.13 12.5 54.5 55 3.7 38.7
19:20 1022 30.18 851 25.13 12.8 55.1 55 4.1 39.3
19:25 1021 30.15 851 25.13 12.9 55.2 55 4 39.2
19:30 1022 30.18 851 25.13 12.5 54.5 56 4.1 39.5
19:35 1022 30.18 851 25.13 12.1 53.7 58 4.1 39.4
19:40 1022 30.18 851 25.13 12 53.5 59 4.3 39.8
19:45 1022 30.18 851 25.13 11.9 53.5 59 4.3 39.8
19:50 1022 30.18 851 25.13 11.9 53.5 60 4.4 40
19:55 1022 30.18 851 25.13 11.9 53.5 58 4.1 39.4
20:00 1022 30.18 851 25.13 11.9 53.5 59 4.1 39.4
20:05 1022 30.18 851 25.13 11.9 53.4 59 4.1 39.4
20:10 1022 30.18 851 25.13 11.9 53.4 57 3.8 38.9
20:15 1022 30.18 851 25.13 11.9 53.4 58 3.9 39
20:20 1022 30.18 851 25.13 11.8 53.2 59 3.9 39.1
20:25 1022 30.18 851 25.13 11.6 52.8 60 4.2 39.5
20:30 1022 30.18 851 25.13 11.4 52.5 63 4.7 40.4
20:35 1022 30.18 851 25.13 11.2 52.2 61 3.9 39.1
20:40 1022 30.18 851 25.13 11.2 52.2 60 3.8 38.8
20:45 1022 30.18 851 25.13 11.2 52.1 59 3.6 38.5
20:50 1022 30.18 851 25.13 11.2 52.2 60 3.9 39
20:55 1022 30.18 851 25.13 11 51.9 61 3.8 38.9
21:00 1022 30.18 851 25.13 10.9 51.5 61 3.8 38.8
21:05 1022 30.18 851 25.13 10.6 51.1 62 3.8 38.8
21:10 1022 30.18 852 25.16 10.6 51 62 3.7 38.7
21:15 1022 30.18 852 25.16 10.3 50.6 64 3.7 38.7
21:20 1022 30.18 852 25.16 10 50 65 3.7 38.7
21:25 1022 30.18 852 25.16 9.8 49.6 65 3.5 38.3
21:30 1022 30.18 852 25.16 9.6 49.3 65 3.3 38
21:35 1022 30.18 852 25.16 9.6 49.2 64 3.2 37.7
21:40 1023 30.21 852 25.16 9.6 49.2 63 2.9 37.3
21:45 1023 30.21 852 25.16 9.5 49.2 63 2.9 37.2
21:50 1023 30.21 852 25.16 9.5 49 63 2.8 37.1
21:55 1023 30.21 852 25.16 9.4 48.9 63 2.7 36.9
22:00 1023 30.21 852 25.16 9.1 48.5 64 2.7 36.8
22:05 1023 30.21 852 25.16 8.9 48.1 66 2.9 37.2
22:10 1023 30.21 852 25.16 8.8 47.8 64 2.3 36.2
22:15 1023 30.21 852 25.16 9 48.1 65 2.7 36.8
22:20 1023 30.21 852 25.16 9 48.1 65 2.7 36.8
22:25 1023 30.21 852 25.16 8.9 48.1 64 2.5 36.6
22:30 1023 30.21 852 25.16 8.9 48 64 2.4 36.3
22:35 1023 30.21 852 25.16 8.3 47 66 2.4 36.4
22:40 1023 30.21 852 25.16 8 46.4 67 2.3 36.2
22:45 1023 30.21 852 25.16 8 46.4 68 2.4 36.3
22:50 1023 30.21 852 25.16 8 46.3 68 2.4 36.3
22:55 1023 30.21 852 25.16 7.8 46.1 68 2.4 36.3
23:00 1023 30.21 852 25.16 7.7 45.9 68 2.2 35.9
23:05 1023 30.21 852 25.16 7.8 46.1 66 2 35.6
23:10 1023 30.21 852 25.16 8 46.3 65 1.7 35.1
23:15 1023 30.21 852 25.16 8.3 46.9 61 1.2 34.2
23:20 1023 30.21 852 25.16 8.8 47.8 58 1 33.8
23:25 1023 30.21 852 25.16 8.8 47.8 57 0.8 33.5
23:30 1023 30.21 853 25.19 8.8 47.8 58 0.9 33.7
23:35 1023 30.21 852 25.16 8.7 47.7 57 0.8 33.4
23:40 1023 30.21 852 25.16 8.8 47.8 57 0.6 33.2
23:45 1023 30.21 852 25.16 8.7 47.7 56 0.5 33
23:50 1023 30.21 853 25.19 8.7 47.7 56 0.5 32.9
23:55 1023 30.21 853 25.19 8.8 47.8 55 0.2 32.3
24:00 1023 30.21 853 25.19 8.9 48 55 0.3 32.5